Time;durP1;ratioP1;P1;durP2;ratioP2;P2;SDS_P1;SDS_P2;PMS_P1;PMS_P2;Temp;Humidity;BMP_temperature;BMP_pressure;BME280_temperature;BME280_humidity;BME280_pressure;Samples;Min_cycle;Max_cycle;Signal;HPM_P1;HPM_P2
2021/08/02 00:02:07;;;;;;;15.88;10.27;;;;;;;27.73;44.89;99512.59;5088099;28;20031;-24
2021/08/02 00:04:38;;;;;;;16.63;10.23;;;;;;;28.22;43.56;99528.84;5087484;28;20443;-24
2021/08/02 00:07:06;;;;;;;15.32;10.15;;;;;;;28.32;43.08;99527.56;5087553;28;20039;-24
2021/08/02 00:09:36;;;;;;;16.77;11.13;;;;;;;28.41;43.25;99519.94;5087399;28;20042;-24
2021/08/02 00:12:16;;;;;;;16.27;10.07;;;;;;;28.49;43.06;99525.63;5087483;28;20089;-24
2021/08/02 00:14:41;;;;;;;18.00;10.45;;;;;;;28.33;43.14;99534.63;5069470;28;20484;-24
2021/08/02 00:17:07;;;;;;;15.30;10.50;;;;;;;28.31;43.95;99536.91;5087107;28;20554;-24
2021/08/02 00:19:32;;;;;;;15.13;10.90;;;;;;;27.77;45.01;99529.13;5086935;28;20024;-24
2021/08/02 00:21:58;;;;;;;14.90;11.10;;;;;;;27.82;45.09;99537.09;5087567;28;20403;-24
2021/08/02 00:24:24;;;;;;;14.48;10.57;;;;;;;26.78;47.84;99528.41;5069469;28;20027;-24
2021/08/02 00:26:50;;;;;;;14.57;11.68;;;;;;;27.14;47.51;99524.88;5086877;28;20509;-24
2021/08/02 00:29:15;;;;;;;14.77;11.07;;;;;;;27.40;47.17;99532.75;5068632;28;20048;-24
2021/08/02 00:31:41;;;;;;;16.15;10.68;;;;;;;27.16;47.45;99539.03;5087428;28;20036;-24
2021/08/02 00:34:06;;;;;;;16.63;11.30;;;;;;;26.80;48.88;99535.13;5068989;28;20039;-24
2021/08/02 00:36:34;;;;;;;16.38;11.10;;;;;;;26.30;49.43;99547.09;5087479;28;20039;-24
2021/08/02 00:39:02;;;;;;;;;;;;;;;26.17;50.20;99542.69;5087801;28;20093;-24
2021/08/02 00:41:51;;;;;;;17.23;12.05;;;;;;;26.34;49.89;99549.97;5087084;28;19916;-24
2021/08/02 00:44:28;;;;;;;15.40;12.25;;;;;;;26.67;48.86;99544.47;5071739;28;20833;-24
2021/08/02 00:46:59;;;;;;;18.58;12.45;;;;;;;26.42;49.43;99544.38;5069008;28;20036;-24
2021/08/02 00:49:25;;;;;;;17.77;11.63;;;;;;;26.43;49.39;99539.72;5086940;28;20055;-25
2021/08/02 00:51:52;;;;;;;22.67;13.60;;;;;;;26.46;49.46;99522.66;5087046;28;20031;-25
2021/08/02 00:54:19;;;;;;;21.90;14.48;;;;;;;26.18;49.71;99538.84;5087018;28;20051;-24
2021/08/02 00:56:45;;;;;;;20.15;12.98;;;;;;;26.24;49.73;99532.03;5086942;28;20020;-24
2021/08/02 00:59:10;;;;;;;21.50;13.95;;;;;;;26.59;49.40;99531.69;5068900;28;20035;-24
2021/08/02 01:01:36;;;;;;;27.20;13.75;;;;;;;26.05;51.07;99530.59;5052161;28;20086;-24
2021/08/02 01:04:02;;;;;;;20.02;13.90;;;;;;;25.90;50.64;99527.69;5086578;28;20157;-24
2021/08/02 01:06:28;;;;;;;21.92;13.60;;;;;;;25.91;50.99;99532.00;5087100;28;20033;-24
2021/08/02 01:08:54;;;;;;;19.90;13.63;;;;;;;26.33;49.76;99535.47;5086849;28;20038;-24
2021/08/02 01:11:20;;;;;;;20.52;14.35;;;;;;;25.99;51.04;99540.16;5051707;28;20032;-24
2021/08/02 01:13:46;;;;;;;26.23;15.20;;;;;;;26.22;49.49;99540.56;5068707;28;20024;-24
2021/08/02 01:16:12;;;;;;;24.33;14.88;;;;;;;25.99;50.85;99545.59;5068698;28;20031;-24
2021/08/02 01:18:38;;;;;;;23.70;15.88;;;;;;;26.40;48.95;99534.94;5086818;28;20055;-24
2021/08/02 01:21:05;;;;;;;19.02;14.45;;;;;;;25.70;51.46;99545.66;5068734;28;20098;-24
2021/08/02 01:23:31;;;;;;;21.48;15.35;;;;;;;25.60;51.80;99547.66;5068697;28;20466;-24
2021/08/02 01:25:56;;;;;;;21.30;14.82;;;;;;;25.60;51.57;99564.03;5068658;28;20039;-24
2021/08/02 01:28:22;;;;;;;26.88;17.80;;;;;;;26.04;50.04;99566.44;5086522;28;20052;-24
2021/08/02 01:30:50;;;;;;;26.25;18.35;;;;;;;25.89;50.94;99559.66;5086742;28;20636;-24
2021/08/02 01:33:20;;;;;;;22.95;17.17;;;;;;;25.67;51.26;99558.03;5086546;28;20035;-24
2021/08/02 01:35:46;;;;;;;22.92;16.75;;;;;;;25.35;52.83;99559.53;5086939;28;20031;-24
2021/08/02 01:38:11;;;;;;;20.70;16.50;;;;;;;25.54;52.15;99559.91;5068926;28;20043;-24
2021/08/02 01:40:37;;;;;;;28.33;17.52;;;;;;;25.39;52.60;99546.81;5086624;28;20124;-24
2021/08/02 01:43:04;;;;;;;21.67;17.15;;;;;;;25.65;52.15;99572.00;5089855;28;20719;-24
2021/08/02 01:45:31;;;;;;;22.90;17.50;;;;;;;25.50;52.28;99542.59;5090305;28;20056;-24
2021/08/02 01:48:17;;;;;;;23.25;17.58;;;;;;;25.33;53.64;99576.22;5055934;28;20081;-24
2021/08/02 01:50:57;;;;;;;30.00;20.05;;;;;;;25.44;52.59;99582.13;5074287;28;20032;-24
2021/08/02 01:53:30;;;;;;;35.40;21.50;;;;;;;25.78;51.27;99580.28;5070810;28;20064;-24
2021/08/02 01:56:10;;;;;;;33.35;21.67;;;;;;;25.83;51.86;99580.09;5084126;28;20116;-24
2021/08/02 01:58:46;;;;;;;25.65;18.85;;;;;;;25.77;52.11;99579.50;5065995;28;20031;-24
2021/08/02 02:01:11;;;;;;;24.42;16.50;;;;;;;25.60;52.73;99564.03;5049061;28;20514;-24
2021/08/02 02:03:37;;;;;;;26.33;19.33;;;;;;;25.92;51.79;99578.13;5066298;28;20060;-24
2021/08/02 02:06:04;;;;;;;30.02;17.95;;;;;;;25.97;51.69;99588.03;5050162;28;20089;-24
2021/08/02 02:08:35;;;;;;;26.15;17.75;;;;;;;26.12;51.43;99587.44;5049833;28;20507;-24
2021/08/02 02:11:02;;;;;;;25.60;18.90;;;;;;;26.15;51.60;99583.22;5083092;28;20485;-24
2021/08/02 02:13:38;;;;;;;25.67;18.35;;;;;;;25.46;53.36;99572.47;5067023;28;20053;-24
2021/08/02 02:16:04;;;;;;;22.50;18.10;;;;;;;25.70;53.19;99583.88;5055526;28;20492;-24
2021/08/02 02:18:31;;;;;;;21.67;17.48;;;;;;;25.99;52.29;99592.06;5071669;28;20038;-24
2021/08/02 02:20:58;;;;;;;28.83;18.50;;;;;;;25.33;54.16;99598.06;5071484;28;20161;-24
2021/08/02 02:23:23;;;;;;;26.48;18.60;;;;;;;24.84;54.94;99592.94;5089398;28;20115;-24
2021/08/02 02:25:49;;;;;;;24.05;18.30;;;;;;;24.40;56.38;99586.78;5071525;28;20476;-25
2021/08/02 02:28:15;;;;;;;23.98;17.70;;;;;;;24.10;56.37;99576.88;5054537;28;20052;-24
2021/08/02 02:30:41;;;;;;;24.52;18.60;;;;;;;23.81;57.37;99589.19;5071517;28;20442;-24
2021/08/02 02:33:07;;;;;;;25.42;16.88;;;;;;;23.65;57.88;99576.00;5089567;28;20515;-24
2021/08/02 02:35:34;;;;;;;24.73;17.40;;;;;;;23.61;57.82;99585.91;5054711;28;20520;-24
2021/08/02 02:37:59;;;;;;;25.67;17.35;;;;;;;23.44;58.52;99581.25;5071440;28;20098;-24
2021/08/02 02:40:25;;;;;;;36.30;19.70;;;;;;;23.82;57.59;99590.78;5054597;28;20078;-24
2021/08/02 02:42:50;;;;;;;25.17;17.38;;;;;;;24.34;56.33;99595.44;5070806;28;20042;-24
2021/08/02 02:45:16;;;;;;;26.77;19.85;;;;;;;24.36;57.20;99599.44;5054238;28;20024;-24
2021/08/02 02:47:41;;;;;;;22.17;18.75;;;;;;;24.08;56.81;99603.63;5089069;28;20480;-24
2021/08/02 02:50:07;;;;;;;27.63;18.60;;;;;;;23.57;58.88;99605.94;5088421;28;20051;-24
2021/08/02 02:52:33;;;;;;;25.35;19.60;;;;;;;23.24;59.60;99588.06;5070902;28;20036;-25
2021/08/02 02:54:58;;;;;;;30.67;18.67;;;;;;;23.19;59.52;99599.09;5088640;28;20032;-24
2021/08/02 02:57:24;;;;;;;48.92;20.63;;;;;;;23.47;58.71;99607.81;5053777;28;20156;-24
2021/08/02 02:59:49;;;;;;;27.95;18.35;;;;;;;23.20;59.48;99600.69;5088821;28;20035;-24
2021/08/02 03:02:15;;;;;;;25.65;18.98;;;;;;;22.97;60.51;99593.72;5088852;28;20062;-24
2021/08/02 03:04:44;;;;;;;25.20;18.92;;;;;;;22.97;60.18;99596.44;5070358;28;20496;-24
2021/08/02 03:07:10;;;;;;;26.40;18.80;;;;;;;23.13;59.96;99596.81;5053772;28;20034;-24
2021/08/02 03:09:37;;;;;;;27.20;19.65;;;;;;;23.30;59.33;99590.66;5070547;28;20456;-24
2021/08/02 03:12:03;;;;;;;31.65;20.42;;;;;;;23.36;59.63;99603.00;5069867;28;20031;-24
2021/08/02 03:14:29;;;;;;;28.98;19.67;;;;;;;23.29;59.84;99578.16;5088539;28;20028;-24
2021/08/02 03:16:54;;;;;;;28.08;19.20;;;;;;;23.38;59.81;99587.16;5053968;28;20039;-24
2021/08/02 03:19:20;;;;;;;35.08;20.08;;;;;;;23.43;59.93;99592.44;5070031;28;20032;-24
2021/08/02 03:21:45;;;;;;;27.75;19.58;;;;;;;23.18;60.00;99586.59;5088555;28;20039;-24
2021/08/02 03:24:38;;;;;;;30.48;20.25;;;;;;;23.22;60.40;99606.63;5088374;28;20334;-24
2021/08/02 03:27:28;;;;;;;31.60;18.58;;;;;;;23.51;59.20;99602.53;5088090;28;20038;-24
2021/08/02 03:29:54;;;;;;;28.30;18.23;;;;;;;23.35;59.93;99590.50;5072302;28;20059;-24
2021/08/02 03:32:20;;;;;;;28.30;19.40;;;;;;;23.34;60.45;99599.78;5070021;28;20032;-24
2021/08/02 03:34:49;;;;;;;25.80;18.98;;;;;;;23.08;60.80;99578.72;5088277;28;20521;-24
2021/08/02 03:37:15;;;;;;;28.73;17.73;;;;;;;22.92;60.91;99599.25;5052883;28;20059;-24
2021/08/02 03:39:40;;;;;;;44.67;23.85;;;;;;;23.62;53.73;99595.69;5053291;28;20032;-24
2021/08/02 03:42:06;;;;;;;35.90;21.40;;;;;;;23.99;51.51;99611.81;5068816;28;20023;-24
2021/08/02 03:44:32;;;;;;;38.72;22.13;;;;;;;24.47;50.67;99599.91;5052429;28;20036;-24
2021/08/02 03:46:57;;;;;;;27.77;17.38;;;;;;;24.42;50.55;99616.44;5069188;28;20419;-24
2021/08/02 03:49:23;;;;;;;28.05;17.95;;;;;;;24.76;53.13;99607.41;5069842;28;20372;-24
2021/08/02 03:51:52;;;;;;;28.88;18.67;;;;;;;25.20;49.26;99620.91;5087565;28;20487;-24
2021/08/02 03:54:18;;;;;;;31.98;19.25;;;;;;;25.29;48.91;99607.25;5087910;28;20036;-24
2021/08/02 03:56:44;;;;;;;30.55;18.83;;;;;;;25.83;47.37;99621.06;5087943;28;20024;-24
2021/08/02 03:59:09;;;;;;;24.73;16.52;;;;;;;25.65;49.02;99607.50;5069254;28;20036;-24
2021/08/02 04:01:43;;;;;;;24.27;15.45;;;;;;;25.33;49.90;99608.97;5087612;28;20032;-24
2021/08/02 04:04:08;;;;;;;27.95;16.70;;;;;;;25.35;48.73;99601.25;5087220;28;20035;-24
2021/08/02 04:06:34;;;;;;;27.17;17.40;;;;;;;25.51;48.80;99600.72;5087609;28;20036;-24
2021/08/02 04:09:00;;;;;;;237.90;157.00;;;;;;;25.79;47.67;99595.56;5087360;28;20499;-24
2021/08/02 04:11:26;;;;;;;26.83;18.67;;;;;;;25.82;48.45;99609.31;5087778;28;20028;-24
2021/08/02 04:13:51;;;;;;;31.42;18.85;;;;;;;25.78;48.36;99605.66;5087070;28;20032;-24
2021/08/02 04:16:17;;;;;;;29.50;18.10;;;;;;;26.14;49.47;99614.44;5087578;28;20523;-24
2021/08/02 04:18:42;;;;;;;23.77;17.55;;;;;;;26.48;46.62;99621.53;5087492;28;20032;-24
2021/08/02 04:21:08;;;;;;;23.73;17.88;;;;;;;26.19;47.28;99617.75;5086962;28;20085;-24
2021/08/02 04:23:33;;;;;;;27.92;18.35;;;;;;;26.41;47.56;99619.31;5087245;28;20043;-24
2021/08/02 04:25:59;;;;;;;27.25;19.17;;;;;;;26.29;49.07;99627.47;5087567;28;20085;-24
2021/08/02 04:28:24;;;;;;;23.42;17.98;;;;;;;26.25;48.18;99621.91;5087009;28;20424;-24
2021/08/02 04:30:50;;;;;;;28.50;17.52;;;;;;;26.23;47.21;99601.47;5087369;28;20028;-24
2021/08/02 04:33:15;;;;;;;24.88;17.30;;;;;;;26.27;48.15;99610.63;5086850;28;20028;-24
2021/08/02 04:35:41;;;;;;;23.90;17.77;;;;;;;26.40;47.60;99606.81;5087043;28;20487;-24
2021/08/02 04:38:07;;;;;;;24.50;18.10;;;;;;;26.33;48.53;99592.88;5087469;28;20040;-24
2021/08/02 04:40:32;;;;;;;26.10;16.15;;;;;;;26.42;49.01;99601.81;5087144;28;20036;-24
2021/08/02 04:42:58;;;;;;;24.85;18.00;;;;;;;26.21;49.72;99601.81;5086557;28;20047;-24
2021/08/02 04:45:23;;;;;;;25.15;17.40;;;;;;;26.31;48.03;99594.34;5087569;28;20032;-24
2021/08/02 04:47:50;;;;;;;26.60;19.20;;;;;;;26.48;48.32;99598.84;5087034;28;20032;-24
2021/08/02 04:50:16;;;;;;;27.75;18.15;;;;;;;26.51;47.89;99587.25;5069160;28;20107;-24
2021/08/02 04:52:42;;;;;;;25.90;18.20;;;;;;;26.54;48.48;99605.69;5087273;28;20115;-24
2021/08/02 04:55:08;;;;;;;21.98;16.27;;;;;;;26.76;48.15;99602.59;5086288;28;20030;-24
2021/08/02 04:57:34;;;;;;;28.08;16.75;;;;;;;26.39;50.71;99590.72;5087006;28;20106;-24
2021/08/02 04:59:59;;;;;;;23.80;17.75;;;;;;;26.33;51.77;99611.22;5087090;28;20388;-24
2021/08/02 05:02:25;;;;;;;21.95;18.27;;;;;;;26.24;51.74;99592.16;5086684;28;20445;-24
2021/08/02 05:04:51;;;;;;;26.42;18.38;;;;;;;26.38;50.67;99608.28;5086937;28;20032;-24
2021/08/02 05:07:16;;;;;;;23.75;16.67;;;;;;;26.23;52.17;99591.34;5086804;28;20040;-24
2021/08/02 05:09:42;;;;;;;26.70;16.73;;;;;;;26.08;52.39;99599.38;5086789;28;20403;-24
2021/08/02 05:12:07;;;;;;;23.00;16.02;;;;;;;26.35;50.86;99609.75;5086998;28;20036;-24
2021/08/02 05:14:33;;;;;;;24.52;15.27;;;;;;;26.77;49.93;99608.88;5086916;28;20020;-24
2021/08/02 05:16:58;;;;;;;23.00;15.68;;;;;;;26.86;48.75;99602.16;5088277;28;20035;-24
2021/08/02 05:19:24;;;;;;;19.20;14.20;;;;;;;27.32;47.87;99617.72;5090886;28;20028;-24
2021/08/02 05:21:49;;;;;;;21.48;15.70;;;;;;;27.30;49.05;99609.06;5090416;28;20050;-24
2021/08/02 05:24:15;;;;;;;18.17;15.10;;;;;;;27.17;49.46;99595.34;5090709;28;20032;-24
2021/08/02 05:26:40;;;;;;;19.55;15.65;;;;;;;26.70;52.21;99601.22;5090336;28;20047;-24
2021/08/02 05:29:06;;;;;;;21.23;15.95;;;;;;;26.95;51.69;99604.81;5089800;28;20055;-24
2021/08/02 05:31:31;;;;;;;16.35;13.32;;;;;;;27.39;49.92;99609.75;5090421;28;20035;-24
2021/08/02 05:33:57;;;;;;;17.08;12.77;;;;;;;27.13;50.63;99605.38;5090321;28;20031;-24
2021/08/02 05:36:22;;;;;;;18.02;13.27;;;;;;;27.28;50.68;99605.88;5090409;28;20035;-24
2021/08/02 05:38:48;;;;;;;18.05;12.55;;;;;;;27.47;48.49;99614.31;5071977;28;20036;-24
2021/08/02 05:41:13;;;;;;;19.48;12.15;;;;;;;27.81;48.96;99620.44;5090122;28;20035;-24
2021/08/02 05:43:39;;;;;;;19.23;12.57;;;;;;;27.80;49.35;99607.88;5072092;28;20028;-24
2021/08/02 05:46:05;;;;;;;17.30;11.50;;;;;;;28.01;48.31;99622.25;5090427;28;20036;-24
2021/08/02 05:48:31;;;;;;;15.75;11.82;;;;;;;27.98;47.36;99639.38;5090452;28;20420;-23
2021/08/02 05:50:56;;;;;;;14.35;11.80;;;;;;;28.09;47.82;99614.22;5090346;28;20035;-24
2021/08/02 05:53:22;;;;;;;19.05;12.02;;;;;;;28.30;47.61;99616.75;5090636;28;20056;-24
2021/08/02 05:55:47;;;;;;;16.98;11.32;;;;;;;28.67;47.48;99628.41;5090085;28;20575;-24
2021/08/02 05:58:13;;;;;;;20.15;12.10;;;;;;;28.37;47.41;99634.22;5089529;28;20097;-24
2021/08/02 06:00:38;;;;;;;19.88;12.05;;;;;;;28.48;46.80;99622.75;5089941;28;20028;-24
2021/08/02 06:03:04;;;;;;;17.02;11.73;;;;;;;28.77;47.12;99635.31;5088496;28;20032;-24
2021/08/02 06:05:30;;;;;;;17.60;12.05;;;;;;;28.74;46.34;99628.59;5089976;28;20028;-24
2021/08/02 06:07:55;;;;;;;16.75;11.80;;;;;;;28.29;47.32;99631.63;5089876;28;20046;-24
2021/08/02 06:10:21;;;;;;;23.17;12.40;;;;;;;28.74;46.28;99630.53;5089611;28;20024;-24
2021/08/02 06:12:46;;;;;;;20.15;11.02;;;;;;;28.73;46.28;99635.25;5089683;28;20081;-24
2021/08/02 06:15:15;;;;;;;15.48;11.55;;;;;;;28.88;47.14;99638.34;5089431;28;20039;-24
2021/08/02 06:17:41;;;;;;;38.88;13.20;;;;;;;28.98;46.34;99615.88;5089541;28;20059;-24
2021/08/02 06:20:06;;;;;;;16.50;11.48;;;;;;;29.35;45.88;99621.09;5089757;28;20031;-24
2021/08/02 06:22:32;;;;;;;20.67;11.40;;;;;;;29.58;45.64;99624.78;5089664;28;20546;-24
2021/08/02 06:24:57;;;;;;;15.40;10.60;;;;;;;29.42;45.29;99621.25;5071261;28;20032;-24
2021/08/02 06:27:23;;;;;;;17.02;10.05;;;;;;;29.87;43.51;99625.44;5089056;28;20412;-24
2021/08/02 06:29:49;;;;;;;11.90;9.00;;;;;;;29.93;43.52;99618.50;5089355;28;20105;-24
2021/08/02 06:32:15;;;;;;;13.23;9.40;;;;;;;30.29;42.99;99612.97;5089372;28;20035;-24
2021/08/02 06:34:40;;;;;;;14.40;9.88;;;;;;;30.38;43.89;99599.78;5089580;28;20123;-24
2021/08/02 06:37:06;;;;;;;13.25;9.23;;;;;;;30.25;43.29;99590.88;5089382;28;20031;-24
2021/08/02 06:39:31;;;;;;;15.60;8.55;;;;;;;29.97;42.52;99583.63;5089258;28;20043;-24
2021/08/02 06:41:57;;;;;;;15.00;8.82;;;;;;;30.18;43.11;99596.22;5089291;28;20369;-24
2021/08/02 06:44:22;;;;;;;15.07;9.85;;;;;;;30.42;42.15;99584.97;5089071;28;20032;-24
2021/08/02 06:46:47;;;;;;;13.60;9.25;;;;;;;30.69;41.63;99587.81;5089108;28;20039;-24
2021/08/02 06:49:13;;;;;;;13.68;9.48;;;;;;;30.82;41.10;99597.44;5089011;28;20461;-24
2021/08/02 06:51:39;;;;;;;12.50;9.00;;;;;;;30.77;41.28;99589.53;5089227;28;20043;-24
2021/08/02 06:54:04;;;;;;;17.73;9.95;;;;;;;30.92;41.02;99578.78;5088784;28;20028;-24
2021/08/02 06:56:29;;;;;;;11.80;8.90;;;;;;;30.84;40.73;99592.38;5088868;28;20028;-24
2021/08/02 06:58:55;;;;;;;13.70;9.70;;;;;;;30.98;39.80;99589.09;5088717;28;20487;-24
2021/08/02 07:01:20;;;;;;;14.23;8.77;;;;;;;31.04;39.98;99581.34;5088503;28;20028;-24
2021/08/02 07:03:46;;;;;;;14.90;9.20;;;;;;;31.35;40.06;99584.94;5088863;28;20036;-24
2021/08/02 07:06:11;;;;;;;12.55;9.32;;;;;;;31.11;39.89;99575.13;5070551;28;20058;-24
2021/08/02 07:08:38;;;;;;;15.55;9.73;;;;;;;31.29;39.74;99565.19;5088814;28;20085;-24
2021/08/02 07:11:04;;;;;;;13.32;9.07;;;;;;;31.36;39.35;99581.00;5088626;28;20740;-24
2021/08/02 07:13:29;;;;;;;17.85;10.20;;;;;;;31.26;39.33;99578.91;5088898;28;20040;-24
2021/08/02 07:15:55;;;;;;;18.75;10.15;;;;;;;31.65;38.88;99574.00;5088499;28;20028;-24
2021/08/02 07:18:22;;;;;;;18.88;10.80;;;;;;;32.25;39.23;99586.97;5089015;28;20032;-24
2021/08/02 07:20:50;;;;;;;15.05;9.27;;;;;;;32.17;38.99;99574.25;5088713;28;20038;-24
2021/08/02 07:23:16;;;;;;;14.00;9.88;;;;;;;31.89;37.93;99561.69;5088084;28;20036;-24
2021/08/02 07:25:42;;;;;;;13.10;10.60;;;;;;;32.34;36.95;99567.34;5088475;28;20039;-24
2021/08/02 07:28:07;;;;;;;14.30;10.48;;;;;;;32.75;36.94;99576.44;5088133;28;20061;-24
2021/08/02 07:30:33;;;;;;;14.88;10.60;;;;;;;32.63;37.63;99576.72;5088407;28;20036;-24
2021/08/02 07:32:58;;;;;;;16.85;10.23;;;;;;;32.60;37.68;99571.97;5088236;28;20032;-24
2021/08/02 07:35:24;;;;;;;13.13;10.18;;;;;;;32.65;37.92;99577.13;5088125;28;20392;-24
2021/08/02 07:37:50;;;;;;;19.23;10.93;;;;;;;32.94;37.23;99577.41;5088080;28;20048;-24
2021/08/02 07:40:16;;;;;;;12.70;10.35;;;;;;;32.96;38.16;99575.06;5087398;28;20415;-24
2021/08/02 07:42:41;;;;;;;15.93;10.68;;;;;;;32.98;36.01;99578.22;5087881;28;20028;-24
2021/08/02 07:45:07;;;;;;;13.32;10.13;;;;;;;33.42;36.13;99580.13;5087984;28;20032;-24
2021/08/02 07:47:33;;;;;;;15.13;10.27;;;;;;;33.01;36.35;99585.72;5087879;28;20043;-24
2021/08/02 07:49:59;;;;;;;12.45;10.25;;;;;;;33.08;36.14;99583.06;5087943;28;20032;-22
2021/08/02 07:52:24;;;;;;;16.02;11.05;;;;;;;32.85;35.59;99568.63;5087720;28;20031;-21
2021/08/02 07:54:50;;;;;;;16.00;10.65;;;;;;;33.22;37.15;99566.59;5088082;28;20545;-22
2021/08/02 07:57:15;;;;;;;16.17;10.57;;;;;;;32.87;36.02;99560.75;5087845;28;20031;-22
2021/08/02 07:59:41;;;;;;;15.52;10.25;;;;;;;33.15;35.78;99566.53;5087924;28;20032;-22
2021/08/02 08:02:06;;;;;;;17.25;11.13;;;;;;;33.25;34.59;99553.19;5087828;28;20035;-22
2021/08/02 08:04:33;;;;;;;15.75;10.60;;;;;;;33.53;34.70;99563.59;5087919;28;20028;-22
2021/08/02 08:06:58;;;;;;;14.70;10.80;;;;;;;33.39;34.86;99561.56;5087662;28;20119;-22
2021/08/02 08:09:24;;;;;;;15.43;10.20;;;;;;;33.33;34.57;99558.38;5088020;28;20696;-22
2021/08/02 08:11:50;;;;;;;16.30;11.10;;;;;;;33.54;34.30;99546.63;5087463;28;20032;-22
2021/08/02 08:14:15;;;;;;;15.02;10.27;;;;;;;34.32;33.31;99553.66;5087568;28;20031;-22
2021/08/02 08:16:41;;;;;;;17.83;11.30;;;;;;;34.51;33.37;99551.72;5087521;28;20031;-22
2021/08/02 08:19:06;;;;;;;12.60;10.82;;;;;;;34.72;32.84;99553.75;5087465;28;20085;-22
2021/08/02 08:21:35;;;;;;;17.77;10.80;;;;;;;35.08;31.25;99554.50;5087542;28;20028;-22
2021/08/02 08:24:03;;;;;;;17.13;10.60;;;;;;;35.01;31.97;99554.53;5087486;28;20468;-22
2021/08/02 08:26:29;;;;;;;16.08;10.50;;;;;;;35.04;31.63;99556.50;5086964;28;20047;-22
2021/08/02 08:28:54;;;;;;;13.73;10.55;;;;;;;35.36;31.15;99550.16;5087270;28;20067;-22
2021/08/02 08:31:20;;;;;;;12.55;10.30;;;;;;;35.51;32.30;99540.59;5087423;28;20046;-22
2021/08/02 08:33:46;;;;;;;14.02;10.02;;;;;;;35.19;31.87;99541.47;5087128;28;20040;-22
2021/08/02 08:36:14;;;;;;;17.30;10.85;;;;;;;35.34;31.28;99531.13;5087078;28;20558;-23
2021/08/02 08:38:40;;;;;;;14.35;10.05;;;;;;;34.64;33.07;99530.78;5087125;28;20505;-22
2021/08/02 08:41:05;;;;;;;19.02;11.32;;;;;;;35.01;33.23;99532.38;5086887;28;20103;-22
2021/08/02 08:43:31;;;;;;;14.27;10.43;;;;;;;35.08;32.02;99521.25;5069686;28;20399;-22
2021/08/02 08:45:56;;;;;;;14.73;10.55;;;;;;;35.03;31.47;99535.53;5088143;28;20028;-22
2021/08/02 08:48:22;;;;;;;15.35;10.63;;;;;;;34.75;33.51;99506.66;5087912;28;20040;-22
2021/08/02 08:50:47;;;;;;;14.02;10.18;;;;;;;35.05;31.54;99516.53;5053586;28;20032;-22
2021/08/02 08:53:15;;;;;;;15.30;10.15;;;;;;;35.40;32.22;99514.88;5091382;28;20486;-22
2021/08/02 08:55:44;;;;;;;14.65;10.77;;;;;;;35.67;32.42;99522.72;5091022;28;20035;-22
2021/08/02 08:58:11;;;;;;;15.38;10.70;;;;;;;35.70;30.71;99502.53;5091244;28;20039;-22
2021/08/02 09:00:36;;;;;;;15.07;10.45;;;;;;;35.84;31.96;99499.69;5091245;28;20097;-22
2021/08/02 09:03:11;;;;;;;13.93;10.07;;;;;;;35.88;31.59;99506.00;5090910;28;20027;-22
2021/08/02 09:05:37;;;;;;;14.65;10.32;;;;;;;36.03;30.59;99511.47;5091032;28;20387;-22
2021/08/02 09:08:02;;;;;;;14.35;10.90;;;;;;;36.36;30.34;99501.75;5090841;28;20032;-22
2021/08/02 09:10:28;;;;;;;13.68;9.82;;;;;;;36.62;30.31;99514.25;5090653;28;20020;-22
2021/08/02 09:13:03;;;;;;;21.80;11.13;;;;;;;36.43;29.84;99506.47;5089030;28;20039;-23
2021/08/02 09:15:33;;;;;;;14.68;10.70;;;;;;;36.23;31.04;99503.41;5090570;28;20113;-22
2021/08/02 09:17:59;;;;;;;16.75;10.95;;;;;;;36.12;30.54;99503.47;5090789;28;20097;-23
2021/08/02 09:20:24;;;;;;;16.80;10.00;;;;;;;35.93;30.51;99488.91;5090873;28;20028;-23
2021/08/02 09:22:50;;;;;;;18.38;10.30;;;;;;;36.26;30.36;99497.84;5090903;28;20060;-23
2021/08/02 09:25:19;;;;;;;13.75;10.45;;;;;;;36.55;31.07;99486.53;5090461;28;20404;-23
2021/08/02 09:27:48;;;;;;;16.00;9.77;;;;;;;36.57;29.12;99489.69;5090630;28;20044;-23
2021/08/02 09:30:21;;;;;;;15.63;9.57;;;;;;;36.07;30.55;99476.94;5090307;28;20055;-23
2021/08/02 09:33:03;;;;;;;21.80;10.93;;;;;;;36.69;31.01;99489.19;5090555;28;20457;-23
2021/08/02 09:35:29;;;;;;;13.18;9.68;;;;;;;37.16;29.20;99483.22;5090580;28;20028;-22
2021/08/02 09:38:06;;;;;;;19.40;10.35;;;;;;;37.15;27.83;99485.22;5090599;28;20032;-23
2021/08/02 09:40:44;;;;;;;;;;;;;;;37.18;27.34;99478.81;5091072;28;20054;-22
2021/08/02 09:43:16;;;;;;;23.73;11.10;;;;;;;37.58;27.08;99475.59;5090338;28;19915;-22
2021/08/02 09:45:49;;;;;;;17.02;10.13;;;;;;;37.55;28.60;99468.81;5090267;28;20081;-23
2021/08/02 09:48:15;;;;;;;16.75;10.40;;;;;;;37.17;27.65;99468.91;5090329;28;20123;-23
2021/08/02 09:50:43;;;;;;;16.52;8.68;;;;;;;37.50;26.11;99472.06;5055752;28;20028;-22
2021/08/02 09:53:11;;;;;;;12.98;9.45;;;;;;;37.58;27.05;99459.69;5089632;28;20433;-22
2021/08/02 09:55:36;;;;;;;18.00;10.15;;;;;;;37.70;25.86;99463.09;5090103;28;20028;-22
2021/08/02 09:58:02;;;;;;;16.77;9.82;;;;;;;37.80;27.21;99464.94;5055567;28;20039;-22
2021/08/02 10:00:28;;;;;;;17.00;9.50;;;;;;;38.34;26.67;99467.72;5090301;28;20024;-22
2021/08/02 10:02:53;;;;;;;15.40;9.48;;;;;;;38.07;24.67;99464.19;5071211;28;20035;-22
2021/08/02 10:05:19;;;;;;;18.05;9.48;;;;;;;37.22;25.92;99450.19;5071875;28;20036;-22
2021/08/02 10:07:45;;;;;;;18.20;9.80;;;;;;;37.83;25.72;99455.75;5090030;28;20049;-22
2021/08/02 10:10:11;;;;;;;15.93;9.30;;;;;;;37.93;26.88;99459.59;5090258;28;20032;-22
2021/08/02 10:12:44;;;;;;;14.68;9.45;;;;;;;38.18;25.56;99443.31;5089550;28;20412;-22
2021/08/02 10:15:15;;;;;;;19.40;9.25;;;;;;;38.14;26.33;99430.69;5071646;28;20028;-22
2021/08/02 10:17:45;;;;;;;19.02;9.07;;;;;;;38.84;24.33;99443.78;5071790;28;20039;-22
2021/08/02 10:20:37;;;;;;;15.13;9.35;;;;;;;38.99;24.70;99444.34;5071984;28;20059;-22
2021/08/02 10:23:03;;;;;;;19.00;9.10;;;;;;;38.55;26.08;99435.19;5085467;28;20033;-22
2021/08/02 10:25:32;;;;;;;18.00;8.67;;;;;;;38.94;23.69;99442.03;5089237;28;20024;-22
2021/08/02 10:28:06;;;;;;;22.63;9.45;;;;;;;39.37;23.29;99441.19;5089235;28;20484;-22
2021/08/02 10:30:32;;;;;;;17.27;9.05;;;;;;;39.28;24.45;99427.06;5089137;28;20028;-23
2021/08/02 10:32:57;;;;;;;15.17;9.10;;;;;;;38.99;23.95;99433.22;5089732;28;20042;-22
2021/08/02 10:35:49;;;;;;;19.47;9.10;;;;;;;38.75;25.86;99426.88;5089739;28;20075;-22
2021/08/02 10:38:18;;;;;;;17.55;8.52;;;;;;;39.24;23.12;99415.19;5085728;28;20044;-22
2021/08/02 10:40:50;;;;;;;16.52;8.73;;;;;;;39.62;23.83;99417.56;5089605;28;20416;-22
2021/08/02 10:43:36;;;;;;;17.00;9.48;;;;;;;39.45;21.81;99391.63;5088961;28;20036;-22
2021/08/02 10:46:18;;;;;;;20.58;8.90;;;;;;;40.25;21.79;99396.94;5089149;28;20031;-22
2021/08/02 10:48:44;;;;;;;15.68;9.73;;;;;;;40.56;23.37;99400.94;5089276;28;20036;-22
2021/08/02 10:51:17;;;;;;;18.27;10.63;;;;;;;40.54;22.42;99399.78;5070747;28;20109;-22
2021/08/02 10:53:43;;;;;;;17.05;9.75;;;;;;;40.27;22.15;99384.09;5089079;28;20031;-22
2021/08/02 10:56:08;;;;;;;20.20;9.93;;;;;;;40.47;21.81;99391.63;5070969;28;20024;-22
2021/08/02 10:58:39;;;;;;;19.53;9.07;;;;;;;40.09;22.35;99372.59;5088899;28;20388;-22
2021/08/02 11:01:06;;;;;;;17.10;8.50;;;;;;;40.27;20.60;99372.16;5088705;28;20032;-22
2021/08/02 11:03:36;;;;;;;18.40;8.88;;;;;;;40.23;20.66;99371.47;5070814;28;20028;-22
2021/08/02 11:06:11;;;;;;;22.25;8.60;;;;;;;40.56;19.83;99377.78;5088773;28;20388;-22
2021/08/02 11:08:50;;;;;;;19.10;8.15;;;;;;;40.69;22.26;99375.84;5088972;28;20107;-22
2021/08/02 11:11:23;;;;;;;22.38;10.10;;;;;;;40.82;21.15;99380.72;5087951;28;20043;-22
2021/08/02 11:13:48;;;;;;;18.88;9.70;;;;;;;40.84;20.42;99369.88;5088710;28;20122;-22
2021/08/02 11:16:14;;;;;;;19.23;9.10;;;;;;;41.16;19.66;99371.72;5088810;28;20444;-22
2021/08/02 11:18:42;;;;;;;19.87;8.23;;;;;;;41.22;19.27;99369.97;5088255;28;20036;-22
2021/08/02 11:21:08;;;;;;;18.42;8.40;;;;;;;41.98;17.73;99371.19;5088249;28;20028;-22